createdAt,value
2023-07-19T00:00:48.280Z,62.93
2023-07-19T00:05:46.803Z,62.84
2023-07-19T00:10:45.776Z,62.84
2023-07-19T00:15:44.739Z,62.84
2023-07-19T00:20:43.662Z,63.87
2023-07-19T00:25:42.602Z,63.27
2023-07-19T00:30:41.647Z,64.31
2023-07-19T00:35:40.457Z,63.81
2023-07-19T00:40:39.417Z,63.37
2023-07-19T00:45:38.379Z,63.81
2023-07-19T00:50:37.309Z,64.21
2023-07-19T00:55:36.288Z,64.21
2023-07-19T01:00:35.209Z,65.36
2023-07-19T01:05:34.151Z,65.15
2023-07-19T01:10:33.128Z,65.82
2023-07-19T01:15:32.064Z,65.59
2023-07-19T01:20:31.002Z,65.48
2023-07-19T01:25:29.957Z,66.74
2023-07-19T01:30:29.286Z,67.27
2023-07-19T01:35:28.011Z,67.58
2023-07-19T01:40:26.784Z,67.03
2023-07-19T01:45:25.733Z,67.17
2023-07-19T01:50:24.724Z,66.74
2023-07-19T01:55:23.648Z,66.77
2023-07-19T02:00:30.510Z,67.07
2023-07-19T02:05:21.583Z,66.97
2023-07-19T02:10:20.457Z,67.07
2023-07-19T02:15:19.415Z,69.34
2023-07-19T02:20:18.373Z,69.47
2023-07-19T02:25:17.378Z,70.59
2023-07-19T02:30:16.276Z,71.33
2023-07-19T02:35:15.189Z,69.87
2023-07-19T02:40:14.159Z,69.78
2023-07-19T02:45:13.088Z,69.60
2023-07-19T02:50:12.432Z,69.81
2023-07-19T02:55:11.019Z,69.60
2023-07-19T03:00:10.095Z,69.91
2023-07-19T03:05:08.907Z,69.91
2023-07-19T03:10:07.871Z,70.72
2023-07-19T03:15:06.802Z,71.26
2023-07-19T03:20:05.872Z,70.82
2023-07-19T03:25:04.674Z,70.72
2023-07-19T03:30:03.646Z,71.53
2023-07-19T03:35:02.589Z,71.73
2023-07-19T03:40:01.557Z,71.91
2023-07-19T03:45:00.503Z,71.09
2023-07-19T03:49:59.554Z,71.60
2023-07-19T03:54:58.422Z,70.79
2023-07-19T03:59:57.361Z,70.48
2023-07-19T04:04:56.327Z,71.09
2023-07-19T04:09:55.201Z,71.80
2023-07-19T04:14:54.180Z,72.34
2023-07-19T04:19:53.116Z,71.50
2023-07-19T04:24:52.055Z,71.91
2023-07-19T04:29:51.070Z,71.97
2023-07-19T04:34:49.936Z,73.70
2023-07-19T04:39:48.900Z,74.71
2023-07-19T04:44:47.840Z,74.62
2023-07-19T04:49:46.798Z,73.66
2023-07-19T04:54:45.750Z,73.87
2023-07-19T04:59:44.690Z,73.26
2023-07-19T05:04:43.684Z,73.36
2023-07-19T05:09:42.604Z,74.14
2023-07-19T05:14:41.518Z,74.61
2023-07-19T05:19:40.487Z,74.81
2023-07-19T05:24:39.433Z,74.57
2023-07-19T05:29:38.413Z,76.90
2023-07-19T05:34:37.388Z,77.48
2023-07-19T05:39:36.307Z,76.06
2023-07-19T05:44:35.454Z,77.58
2023-07-19T05:49:34.235Z,79.36
2023-07-19T05:54:33.191Z,77.64
2023-07-19T05:59:32.064Z,79.22
2023-07-19T06:04:31.159Z,79.49
2023-07-19T06:09:30.001Z,76.93
2023-07-19T06:14:28.936Z,78.00
2023-07-19T06:19:27.865Z,76.95
2023-07-19T06:24:26.837Z,77.02
2023-07-19T06:29:25.728Z,72.44
2023-07-19T06:34:24.727Z,70.09
2023-07-19T06:39:23.637Z,67.84
2023-07-19T06:44:22.554Z,67.10
2023-07-19T06:49:21.638Z,66.97
2023-07-19T06:54:20.594Z,64.22
2023-07-19T06:59:19.453Z,64.12
2023-07-19T07:04:18.816Z,62.98
2023-07-19T07:09:17.397Z,61.37
2023-07-19T07:14:16.392Z,59.74
2023-07-19T07:19:15.299Z,60.03
2023-07-19T07:24:14.187Z,60.61
2023-07-19T07:29:13.229Z,59.98
2023-07-19T07:34:12.282Z,59.98
2023-07-19T07:39:11.138Z,59.75
2023-07-19T07:44:09.998Z,57.84
2023-07-19T07:49:10.729Z,57.31
2023-07-19T07:54:07.842Z,56.78
2023-07-19T07:59:06.807Z,56.05
2023-07-19T08:04:05.819Z,56.13
2023-07-19T08:09:04.714Z,52.82
2023-07-19T08:14:03.647Z,51.82
2023-07-19T08:19:02.618Z,51.82
2023-07-19T08:24:01.593Z,53.52
2023-07-19T08:29:00.483Z,52.82
2023-07-19T08:33:59.461Z,51.89
2023-07-19T08:38:58.415Z,52.29
2023-07-19T08:43:57.381Z,51.14
2023-07-19T08:48:56.271Z,49.41
2023-07-19T08:53:55.271Z,49.91
2023-07-19T08:58:54.291Z,47.72
2023-07-19T09:03:53.216Z,48.10
2023-07-19T09:08:52.134Z,46.57
2023-07-19T09:13:50.996Z,46.75
2023-07-19T09:18:50.193Z,46.07
2023-07-19T09:23:49.109Z,48.25
2023-07-19T09:28:48.259Z,45.95
2023-07-19T09:33:46.955Z,44.55
2023-07-19T09:38:45.838Z,44.27
2023-07-19T09:43:44.694Z,46.85
2023-07-19T09:48:43.648Z,45.63
2023-07-19T09:53:42.643Z,45.83
2023-07-19T09:58:41.600Z,44.53
2023-07-19T10:03:40.533Z,44.93
2023-07-19T10:08:39.469Z,45.13
2023-07-19T10:13:38.373Z,45.73
2023-07-19T10:18:37.378Z,45.33
2023-07-19T10:23:36.377Z,45.63
2023-07-19T10:28:35.283Z,45.83
2023-07-19T10:33:34.346Z,46.31
2023-07-19T10:38:33.157Z,49.08
2023-07-19T10:43:47.201Z,47.38
2023-07-19T10:48:31.090Z,46.38
2023-07-19T10:53:29.975Z,46.08
2023-07-19T10:58:28.912Z,46.86
2023-07-19T11:03:27.995Z,46.06
2023-07-19T11:08:26.945Z,45.76
2023-07-19T11:13:26.253Z,44.49
2023-07-19T11:18:24.708Z,46.36
2023-07-19T11:23:23.719Z,45.04
2023-07-19T11:28:22.595Z,44.35
2023-07-19T11:33:21.561Z,43.45
2023-07-19T11:38:20.610Z,44.23
2023-07-19T11:43:19.435Z,41.33
2023-07-19T11:48:18.484Z,39.74
2023-07-19T11:53:17.343Z,40.46
2023-07-19T11:58:16.307Z,42.25
2023-07-19T12:03:15.324Z,42.93
2023-07-19T12:08:14.220Z,42.13
2023-07-19T12:13:13.160Z,44.32
2023-07-19T12:18:12.104Z,40.70
2023-07-19T12:23:11.122Z,39.50
2023-07-19T12:28:09.997Z,39.90
2023-07-19T12:33:08.953Z,41.20
2023-07-19T12:38:07.872Z,40.90
2023-07-19T12:43:06.813Z,41.09
2023-07-19T12:48:05.838Z,41.12
2023-07-19T12:53:04.722Z,41.52
2023-07-19T12:58:03.765Z,42.19
2023-07-19T13:03:03.082Z,41.30
2023-07-19T13:08:01.679Z,41.47
2023-07-19T13:13:00.524Z,40.26
2023-07-19T13:17:59.475Z,42.03
2023-07-19T13:22:58.457Z,40.42
2023-07-19T13:27:57.387Z,39.45
2023-07-19T13:32:56.330Z,40.64
2023-07-19T13:42:57.137Z,40.06
2023-07-19T13:47:53.348Z,40.86
2023-07-19T13:52:52.114Z,41.08
2023-07-19T13:57:51.066Z,41.08
2023-07-19T14:02:50.134Z,41.67
2023-07-19T14:07:49.017Z,42.27
2023-07-19T14:12:59.205Z,41.67
2023-07-19T14:17:46.913Z,42.57
2023-07-19T14:22:45.900Z,41.77
2023-07-19T14:27:44.961Z,43.24
2023-07-19T14:32:44.413Z,42.35
2023-07-19T14:37:42.827Z,41.06
2023-07-19T14:42:41.638Z,41.55
2023-07-19T14:47:40.678Z,41.36
2023-07-19T14:52:42.933Z,41.97
2023-07-19T14:57:38.423Z,42.17
2023-07-19T15:02:37.505Z,42.47
2023-07-19T15:07:36.368Z,43.07
2023-07-19T15:12:35.357Z,42.67
2023-07-19T15:17:34.441Z,42.97
2023-07-19T15:22:33.503Z,42.97
2023-07-19T15:27:32.171Z,42.79
2023-07-19T15:32:31.134Z,42.79
2023-07-19T15:37:30.029Z,42.29
2023-07-19T15:42:28.992Z,42.39
2023-07-19T15:47:28.109Z,42.29
2023-07-19T15:52:26.962Z,42.89
2023-07-19T15:57:25.875Z,42.59
2023-07-19T16:02:24.877Z,43.08
2023-07-19T16:07:23.787Z,43.19
2023-07-19T16:12:22.728Z,43.07
2023-07-19T16:17:21.666Z,44.58
2023-07-19T16:22:20.713Z,45.18
2023-07-19T16:27:19.526Z,45.08
2023-07-19T16:32:18.502Z,45.57
2023-07-19T16:37:17.439Z,45.78
2023-07-19T16:42:16.426Z,46.17
2023-07-19T16:47:15.350Z,46.08
2023-07-19T16:52:14.351Z,46.37
2023-07-19T16:57:13.215Z,46.47
2023-07-19T17:02:12.217Z,46.59
2023-07-19T17:07:11.873Z,46.49
2023-07-19T17:12:10.122Z,46.39
2023-07-19T17:17:13.073Z,46.69
2023-07-19T17:22:07.972Z,46.79
2023-07-19T17:27:06.987Z,46.69
2023-07-19T17:32:05.852Z,46.12
2023-07-19T17:37:04.855Z,46.51
2023-07-19T17:42:03.967Z,46.81
2023-07-19T17:47:02.824Z,46.31
2023-07-19T17:52:01.664Z,47.41
2023-07-19T17:57:00.605Z,47.41
2023-07-19T18:01:59.647Z,48.01
2023-07-19T18:06:58.556Z,48.01
2023-07-19T18:11:57.501Z,48.03
2023-07-19T18:16:56.488Z,48.43
2023-07-19T18:26:54.329Z,48.63
2023-07-19T18:31:53.318Z,49.05
2023-07-19T18:36:52.277Z,49.35
2023-07-19T18:41:51.154Z,49.65
2023-07-19T18:46:50.131Z,50.45
2023-07-19T18:51:49.033Z,50.67
2023-07-19T18:56:48.002Z,51.07
2023-07-19T19:01:46.925Z,51.57
2023-07-19T19:06:45.938Z,52.39
2023-07-19T19:11:44.864Z,52.69
2023-07-19T19:16:43.927Z,53.19
2023-07-19T19:21:42.798Z,53.79
2023-07-19T19:26:41.706Z,53.52
2023-07-19T19:31:40.669Z,53.52
2023-07-19T19:36:39.604Z,57.14
2023-07-19T19:41:38.570Z,59.09
2023-07-19T19:46:37.550Z,61.12
2023-07-19T19:51:37.482Z,62.65
2023-07-19T19:56:35.366Z,64.69
2023-07-19T20:01:34.662Z,65.22
2023-07-19T20:21:00.763Z,65.85
2023-07-19T20:26:11.863Z,65.95
2023-07-19T20:36:46.774Z,66.88
2023-07-19T20:41:46.604Z,66.35
2023-07-19T20:46:45.550Z,66.55
2023-07-19T20:51:44.577Z,67.25
2023-07-19T20:56:43.736Z,67.38
2023-07-19T21:01:42.511Z,67.69
2023-07-19T21:06:41.419Z,67.65
2023-07-19T21:11:40.495Z,67.35
2023-07-19T21:16:39.583Z,67.29
2023-07-19T21:21:38.350Z,67.79
2023-07-19T21:26:37.382Z,67.99
2023-07-19T21:31:36.351Z,67.58
2023-07-19T21:36:35.235Z,66.99
2023-07-19T21:41:34.554Z,66.48
2023-07-19T21:46:33.174Z,66.48
2023-07-19T21:51:31.906Z,66.28
2023-07-19T21:56:31.005Z,66.08
2023-07-19T22:01:30.083Z,66.31
2023-07-19T22:06:28.967Z,66.31
2023-07-19T22:11:27.649Z,66.11
2023-07-19T22:16:26.667Z,66.11
2023-07-19T22:21:25.573Z,65.91
2023-07-19T22:26:25.137Z,65.81
2023-07-19T22:31:23.560Z,65.91
2023-07-19T22:36:22.782Z,65.81
2023-07-19T22:41:21.419Z,65.81
2023-07-19T22:46:20.733Z,65.81
2023-07-19T22:51:19.262Z,66.05
2023-07-19T22:56:18.330Z,66.05
2023-07-19T23:01:17.159Z,65.94
2023-07-19T23:06:16.143Z,65.64
2023-07-19T23:11:15.015Z,65.84
2023-07-19T23:16:14.087Z,65.94
2023-07-19T23:21:12.993Z,66.05
2023-07-19T23:26:11.884Z,66.28
2023-07-19T23:31:11.126Z,66.14
2023-07-19T23:36:10.030Z,66.28
2023-07-19T23:41:08.941Z,66.58
2023-07-19T23:46:07.878Z,66.58
2023-07-19T23:51:06.854Z,66.58
2023-07-19T23:56:06.030Z,67.18
